createdAt,value
2022-12-23T00:01:08.863Z,100321.78
2022-12-23T00:03:35.996Z,100319.25
2022-12-23T00:06:15.072Z,100319.88
2022-12-23T00:08:42.843Z,100316.41
2022-12-23T00:11:18.472Z,100308.16
2022-12-23T00:14:03.522Z,100314.09
2022-12-23T00:16:30.130Z,100306.13
2022-12-23T00:18:56.605Z,100301.59
2022-12-23T00:21:23.146Z,100299.38
2022-12-23T00:23:51.288Z,100290.94
2022-12-23T00:26:21.588Z,100287.94
2022-12-23T00:28:48.671Z,100282.22
2022-12-23T00:31:18.286Z,100292.78
2022-12-23T00:33:47.347Z,100298.22
2022-12-23T00:36:28.378Z,100294.47
2022-12-23T00:39:14.769Z,100293.44
2022-12-23T00:41:59.673Z,100300.06
2022-12-23T00:44:26.149Z,100290.63
2022-12-23T00:46:52.745Z,100286.84
2022-12-23T00:49:39.185Z,100283.84
2022-12-23T00:52:08.602Z,100271.97
2022-12-23T00:54:35.243Z,100285.53
2022-12-23T00:57:02.049Z,100286.00
2022-12-23T00:59:28.713Z,100286.50
2022-12-23T01:02:14.502Z,100288.13
2022-12-23T01:04:59.569Z,100289.84
2022-12-23T01:07:26.169Z,100284.84
2022-12-23T01:09:52.734Z,100285.63
2022-12-23T01:12:19.256Z,100284.59
2022-12-23T01:14:45.858Z,100284.28
2022-12-23T01:17:12.543Z,100280.06
2022-12-23T01:19:39.213Z,100279.03
2022-12-23T01:22:05.703Z,100276.75
2022-12-23T01:24:32.758Z,100273.03
2022-12-23T01:26:59.585Z,100280.44
2022-12-23T01:29:27.296Z,100280.13
2022-12-23T01:31:53.858Z,100273.97
2022-12-23T01:34:20.423Z,100274.41
2022-12-23T01:36:46.875Z,100274.16
2022-12-23T01:39:13.364Z,100281.53
2022-12-23T01:41:58.031Z,100275.81
2022-12-23T01:45:00.763Z,100282.16
2022-12-23T01:47:27.224Z,100277.94
2022-12-23T01:50:01.787Z,100285.50
2022-12-23T01:52:29.344Z,100291.38
2022-12-23T01:54:56.521Z,100294.09
2022-12-23T01:57:24.080Z,100289.91
2022-12-23T02:00:09.497Z,100287.63
2022-12-23T02:02:55.591Z,100287.34
2022-12-23T02:05:23.766Z,100286.59
2022-12-23T02:08:10.725Z,100286.75
2022-12-23T02:11:11.287Z,100284.03
2022-12-23T02:14:17.730Z,100290.69
2022-12-23T02:16:57.767Z,100283.44
2022-12-23T02:20:01.479Z,100291.31
2022-12-23T02:22:46.753Z,100291.75
2022-12-23T02:25:41.257Z,100286.06
2022-12-23T02:28:10.656Z,100283.53
2022-12-23T02:30:45.904Z,100282.78
2022-12-23T02:33:29.521Z,100286.69
2022-12-23T02:36:10.421Z,100281.72
2022-12-23T02:38:53.317Z,100294.50
2022-12-23T02:42:18.597Z,100291.53
2022-12-23T02:44:45.019Z,100283.41
2022-12-23T02:47:35.649Z,100283.84
2022-12-23T02:50:09.525Z,100281.59
2022-12-23T02:52:37.833Z,100297.88
2022-12-23T02:55:13.246Z,100290.19
2022-12-23T02:57:44.860Z,100290.66
2022-12-23T03:00:12.662Z,100296.53
2022-12-23T03:02:40.579Z,100293.81
2022-12-23T03:05:24.492Z,100294.28
2022-12-23T03:07:53.890Z,100286.16
2022-12-23T03:10:31.096Z,100289.31
2022-12-23T03:13:03.041Z,100289.00
2022-12-23T03:15:46.969Z,100292.19
2022-12-23T03:18:34.202Z,100294.91
2022-12-23T03:21:05.400Z,100291.91
2022-12-23T03:23:42.107Z,100297.34
2022-12-23T03:26:21.215Z,100299.72
2022-12-23T03:28:51.741Z,100307.09
2022-12-23T03:31:24.229Z,100304.41
2022-12-23T03:33:58.241Z,100304.13
2022-12-23T03:36:29.213Z,100306.06
2022-12-23T03:38:56.976Z,100312.69
2022-12-23T03:41:30.199Z,100313.13
2022-12-23T03:44:29.246Z,100319.31
2022-12-23T03:47:08.768Z,100325.94
2022-12-23T03:49:41.536Z,100320.53
2022-12-23T03:52:20.510Z,100327.94
2022-12-23T03:54:54.385Z,100325.66
2022-12-23T03:57:22.629Z,100334.22
2022-12-23T03:59:54.126Z,100331.25
2022-12-23T04:02:46.188Z,100329.72
2022-12-23T04:05:23.153Z,100319.34
2022-12-23T04:08:08.907Z,100323.25
2022-12-23T04:10:35.638Z,100316.34
2022-12-23T04:13:02.229Z,100322.66
2022-12-23T04:15:29.342Z,100326.88
2022-12-23T04:17:57.293Z,100324.63
2022-12-23T04:20:24.386Z,100325.09
2022-12-23T04:22:50.900Z,100330.50
2022-12-23T04:25:18.209Z,100325.84
2022-12-23T04:27:44.687Z,100328.97
2022-12-23T04:30:13.702Z,100334.13
2022-12-23T04:32:41.608Z,100334.13
2022-12-23T04:35:08.898Z,100332.63
2022-12-23T04:37:35.542Z,100328.41
2022-12-23T04:40:02.004Z,100329.59
2022-12-23T04:42:28.499Z,100323.44
2022-12-23T04:44:54.931Z,100325.88
2022-12-23T04:47:21.394Z,100325.88
2022-12-23T04:49:47.861Z,100324.34
2022-12-23T04:52:14.416Z,100329.00
2022-12-23T04:54:46.072Z,100329.00
2022-12-23T04:57:13.606Z,100336.38
2022-12-23T04:59:40.023Z,100338.81
2022-12-23T05:02:07.962Z,100343.47
2022-12-23T05:04:34.884Z,100343.91
2022-12-23T05:07:01.447Z,100341.69
2022-12-23T05:09:27.932Z,100340.94
2022-12-23T05:11:54.549Z,100338.22
2022-12-23T05:14:21.124Z,100340.63
2022-12-23T05:16:47.675Z,100345.59
2022-12-23T05:19:14.141Z,100342.13
2022-12-23T05:21:40.639Z,100345.25
2022-12-23T05:24:07.179Z,100354.59
2022-12-23T05:26:33.645Z,100352.38
2022-12-23T05:29:00.118Z,100357.03
2022-12-23T05:31:26.718Z,100357.44
2022-12-23T05:33:53.345Z,100359.41
2022-12-23T05:36:19.893Z,100364.81
2022-12-23T05:38:46.382Z,100362.59
2022-12-23T05:41:12.876Z,100368.00
2022-12-23T05:43:39.326Z,100368.88
2022-12-23T05:46:05.884Z,100369.22
2022-12-23T05:48:32.403Z,100369.97
2022-12-23T05:50:58.909Z,100367.25
2022-12-23T05:53:26.592Z,100374.78
2022-12-23T05:55:53.106Z,100369.97
2022-12-23T05:58:19.622Z,100369.63
2022-12-23T06:00:46.141Z,100373.28
2022-12-23T06:03:12.698Z,100375.78
2022-12-23T06:05:40.056Z,100383.91
2022-12-23T06:08:06.518Z,100371.84
2022-12-23T06:10:33.001Z,100376.03
2022-12-23T06:12:59.501Z,100382.94
2022-12-23T06:15:25.969Z,100382.16
2022-12-23T06:17:52.398Z,100389.50
2022-12-23T06:20:20.953Z,100388.69
2022-12-23T06:22:48.175Z,100391.84
2022-12-23T06:25:14.825Z,100409.56
2022-12-23T06:27:41.319Z,100408.50
2022-12-23T06:30:08.546Z,100411.16
2022-12-23T06:32:38.635Z,100406.88
2022-12-23T06:35:06.832Z,100422.06
2022-12-23T06:37:33.250Z,100413.59
2022-12-23T06:39:59.799Z,100420.31
2022-12-23T06:42:26.299Z,100422.97
2022-12-23T06:44:52.782Z,100419.63
2022-12-23T06:47:19.373Z,100425.94
2022-12-23T06:49:45.852Z,100423.78
2022-12-23T06:52:12.308Z,100411.06
2022-12-23T06:54:38.788Z,100412.81
2022-12-23T06:57:05.367Z,100408.72
2022-12-23T06:59:31.856Z,100416.22
2022-12-23T07:01:58.485Z,100420.28
2022-12-23T07:04:25.136Z,100437.91
2022-12-23T07:06:51.636Z,100429.56
2022-12-23T07:09:18.402Z,100438.28
2022-12-23T07:11:44.886Z,100429.22
2022-12-23T07:14:11.694Z,100431.28
2022-12-23T07:16:38.340Z,100420.66
2022-12-23T07:19:04.923Z,100423.94
2022-12-23T07:21:31.504Z,100432.66
2022-12-23T07:23:58.091Z,100440.66
2022-12-23T07:26:24.698Z,100442.91
2022-12-23T07:28:51.134Z,100434.56
2022-12-23T07:31:17.653Z,100442.25
2022-12-23T07:33:44.659Z,100449.47
2022-12-23T07:36:11.220Z,100447.75
2022-12-23T07:38:37.707Z,100460.41
2022-12-23T07:41:04.246Z,100466.88
2022-12-23T07:43:30.845Z,100468.88
2022-12-23T07:46:00.308Z,100472.16
2022-12-23T07:48:27.808Z,100473.94
2022-12-23T07:51:00.499Z,100483.88
2022-12-23T07:53:27.108Z,100483.66
2022-12-23T07:55:56.671Z,100488.94
2022-12-23T07:58:24.005Z,100498.41
2022-12-23T08:00:50.590Z,100502.94
2022-12-23T08:03:17.440Z,100495.34
2022-12-23T08:05:44.246Z,100501.31
2022-12-23T08:08:10.768Z,100503.09
2022-12-23T08:10:40.304Z,100497.72
2022-12-23T08:13:11.040Z,100515.09
2022-12-23T08:15:37.489Z,100520.25
2022-12-23T08:18:04.070Z,100513.84
2022-12-23T08:20:30.540Z,100524.84
2022-12-23T08:22:57.021Z,100529.84
2022-12-23T08:25:23.473Z,100527.94
2022-12-23T08:27:51.279Z,100537.22
2022-12-23T08:30:18.869Z,100532.31
2022-12-23T08:32:45.377Z,100538.78
2022-12-23T08:35:11.815Z,100529.97
2022-12-23T08:37:38.385Z,100527.03
2022-12-23T08:40:05.468Z,100533.72
2022-12-23T08:42:32.112Z,100533.25
2022-12-23T08:44:58.718Z,100545.13
2022-12-23T08:47:25.227Z,100538.69
2022-12-23T08:49:51.685Z,100538.88
2022-12-23T08:52:18.157Z,100535.59
2022-12-23T08:54:44.686Z,100549.97
2022-12-23T08:57:11.134Z,100552.50
2022-12-23T08:59:37.661Z,100565.16
2022-12-23T09:02:04.258Z,100561.94
2022-12-23T09:04:30.838Z,100560.28
2022-12-23T09:06:57.316Z,100562.25
2022-12-23T09:09:23.842Z,100566.47
2022-12-23T09:11:50.422Z,100576.31
2022-12-23T09:14:16.942Z,100583.25
2022-12-23T09:16:43.404Z,100586.75
2022-12-23T09:19:10.001Z,100584.78
2022-12-23T09:21:36.778Z,100585.72
2022-12-23T09:24:03.480Z,100587.22
2022-12-23T09:26:32.028Z,100581.75
2022-12-23T09:28:58.878Z,100590.44
2022-12-23T09:31:29.280Z,100584.22
2022-12-23T09:34:00.820Z,100592.09
2022-12-23T09:36:27.525Z,100594.38
2022-12-23T09:38:55.680Z,100585.94
2022-12-23T09:41:43.643Z,100581.41
2022-12-23T09:44:45.677Z,100574.47
2022-12-23T09:47:17.283Z,100576.91
2022-12-23T09:49:49.837Z,100585.84
2022-12-23T09:52:24.049Z,100593.75
2022-12-23T09:54:53.991Z,100594.00
2022-12-23T09:57:45.070Z,100593.53
2022-12-23T10:00:15.134Z,100590.81
2022-12-23T10:02:44.566Z,100597.75
2022-12-23T10:05:30.498Z,100605.94
2022-12-23T10:08:04.226Z,100602.25
2022-12-23T10:10:36.493Z,100592.84
2022-12-23T10:13:06.314Z,100585.19
2022-12-23T10:15:44.657Z,100590.63
2022-12-23T10:18:24.358Z,100580.75
2022-12-23T10:21:01.526Z,100584.47
2022-12-23T10:23:35.310Z,100581.00
2022-12-23T10:26:07.590Z,100591.00
2022-12-23T10:28:34.291Z,100580.09
2022-12-23T10:31:38.704Z,100588.81
2022-12-23T10:34:12.014Z,100590.06
2022-12-23T10:37:02.856Z,100592.31
2022-12-23T10:39:38.267Z,100598.50
2022-12-23T10:42:16.988Z,100599.25
2022-12-23T10:44:43.414Z,100603.47
2022-12-23T10:47:15.954Z,100595.03
2022-12-23T10:49:55.882Z,100596.81
2022-12-23T10:52:25.861Z,100599.53
2022-12-23T10:54:52.338Z,100602.97
2022-12-23T10:57:20.836Z,100590.91
2022-12-23T10:59:47.386Z,100592.41
2022-12-23T11:02:14.240Z,100580.53
2022-12-23T11:04:44.537Z,100587.22
2022-12-23T11:07:43.623Z,100579.34
2022-12-23T11:10:17.365Z,100583.25
2022-12-23T11:12:47.479Z,100577.06
2022-12-23T11:15:35.099Z,100579.03
2022-12-23T11:18:13.757Z,100583.72
2022-12-23T11:20:42.645Z,100578.28
2022-12-23T11:23:35.783Z,100594.16
2022-12-23T11:26:09.767Z,100596.44
2022-12-23T11:28:50.488Z,100615.00
2022-12-23T11:31:27.457Z,100609.56
2022-12-23T11:34:02.497Z,100611.06
2022-12-23T11:36:30.643Z,100607.91
2022-12-23T11:39:12.611Z,100605.63
2022-12-23T11:41:45.212Z,100609.38
2022-12-23T11:44:27.927Z,100606.66
2022-12-23T11:46:55.009Z,100598.47
2022-12-23T11:49:27.580Z,100596.50
2022-12-23T11:52:06.044Z,100591.56
2022-12-23T11:54:33.894Z,100584.38
2022-12-23T11:57:04.200Z,100585.59
2022-12-23T11:59:39.811Z,100577.19
2022-12-23T12:02:21.352Z,100580.91
2022-12-23T12:05:28.664Z,100580.91
2022-12-23T12:08:00.011Z,100585.13
2022-12-23T12:10:29.328Z,100583.91
2022-12-23T12:12:58.151Z,100583.16
2022-12-23T12:15:46.677Z,100584.38
2022-12-23T12:18:19.057Z,100584.38
2022-12-23T12:20:48.501Z,100587.09
2022-12-23T12:23:20.976Z,100578.94
2022-12-23T12:25:57.139Z,100570.75
2022-12-23T12:28:29.936Z,100554.16
2022-12-23T12:31:00.595Z,100568.22
2022-12-23T12:33:40.823Z,100560.53
2022-12-23T12:36:13.870Z,100551.38
2022-12-23T12:38:45.881Z,100544.13
2022-12-23T12:41:24.805Z,100532.69
2022-12-23T12:43:59.973Z,100533.16
2022-12-23T12:46:47.520Z,100535.31
2022-12-23T12:49:40.013Z,100542.19
2022-12-23T12:52:21.138Z,100540.13
2022-12-23T12:55:01.850Z,100546.03
2022-12-23T12:57:29.503Z,100538.72
2022-12-23T13:00:05.239Z,100536.47
2022-12-23T13:02:47.500Z,100526.81
2022-12-23T13:05:32.308Z,100523.53
2022-12-23T13:08:31.080Z,100527.66
2022-12-23T13:11:03.672Z,100529.63
2022-12-23T13:13:46.332Z,100530.56
2022-12-23T13:16:32.225Z,100536.97
2022-12-23T13:19:09.187Z,100537.44
2022-12-23T13:21:41.632Z,100521.28
2022-12-23T13:24:23.239Z,100522.22
2022-12-23T13:27:17.181Z,100524.19
2022-12-23T13:29:46.584Z,100518.94
2022-12-23T13:32:39.642Z,100517.94
2022-12-23T13:35:12.421Z,100507.50
2022-12-23T13:38:00.620Z,100515.09
2022-12-23T13:41:03.071Z,100517.81
2022-12-23T13:43:51.042Z,100518.78
2022-12-23T13:46:43.112Z,100518.50
2022-12-23T13:49:30.784Z,100512.75
2022-12-23T13:52:11.318Z,100505.25
2022-12-23T13:54:52.536Z,100515.56
2022-12-23T13:57:40.938Z,100511.38
2022-12-23T14:00:17.045Z,100522.25
2022-12-23T14:02:52.186Z,100532.38
2022-12-23T14:05:35.348Z,100524.97
2022-12-23T14:08:19.135Z,100516.06
2022-12-23T14:11:00.804Z,100518.78
2022-12-23T14:13:30.165Z,100525.69
2022-12-23T14:16:14.898Z,100514.09
2022-12-23T14:18:53.361Z,100522.25
2022-12-23T14:21:49.216Z,100511.81
2022-12-23T14:24:33.767Z,100509.56
2022-12-23T14:27:30.995Z,100507.16
2022-12-23T14:30:12.913Z,100500.94
2022-12-23T14:32:50.088Z,100497.47
2022-12-23T14:35:23.415Z,100493.97
2022-12-23T14:38:10.486Z,100498.22
2022-12-23T14:40:36.924Z,100498.22
2022-12-23T14:43:22.135Z,100507.16
2022-12-23T14:45:50.913Z,100505.19
2022-12-23T14:48:35.812Z,100499.00
2022-12-23T14:51:08.344Z,100498.50
2022-12-23T14:53:37.550Z,100494.31
2022-12-23T14:56:35.750Z,100489.63
2022-12-23T14:59:12.692Z,100494.31
2022-12-23T15:01:48.431Z,100486.13
2022-12-23T15:04:19.498Z,100493.56
2022-12-23T15:07:33.527Z,100489.28
2022-12-23T15:10:14.527Z,100491.28
2022-12-23T15:12:43.631Z,100498.69
2022-12-23T15:15:30.715Z,100500.81
2022-12-23T15:18:06.038Z,100502.53
2022-12-23T15:20:33.988Z,100500.25
2022-12-23T15:23:01.371Z,100508.91
2022-12-23T15:25:31.926Z,100502.72
2022-12-23T15:28:02.081Z,100502.72
2022-12-23T15:30:33.966Z,100496.81
2022-12-23T15:33:21.821Z,100494.09
2022-12-23T15:35:53.663Z,100503.09
2022-12-23T15:38:22.247Z,100516.69
2022-12-23T15:41:00.309Z,100510.03
2022-12-23T15:43:27.108Z,100513.78
2022-12-23T15:45:53.876Z,100514.09
2022-12-23T15:48:31.961Z,100512.38
2022-12-23T15:54:29.446Z,100506.75
2022-12-23T15:56:57.817Z,100509.00
2022-12-23T15:59:29.208Z,100502.34
2022-12-23T16:01:56.085Z,100503.09
2022-12-23T16:04:28.524Z,100504.59
2022-12-23T16:06:56.096Z,100497.19
2022-12-23T16:09:29.895Z,100496.72
2022-12-23T16:12:04.074Z,100495.97
2022-12-23T16:14:32.571Z,100481.91
2022-12-23T16:17:15.360Z,100477.69
2022-12-23T16:19:46.307Z,100478.44
2022-12-23T16:22:34.311Z,100481.91
2022-12-23T16:25:00.781Z,100477.69
2022-12-23T16:27:50.676Z,100470.00
2022-12-23T16:30:24.407Z,100468.03
2022-12-23T16:32:56.416Z,100461.38
2022-12-23T16:35:25.656Z,100469.53
2022-12-23T16:37:56.456Z,100457.16
2022-12-23T16:40:24.413Z,100456.69
2022-12-23T16:42:50.906Z,100439.59
2022-12-23T16:45:17.468Z,100443.06
2022-12-23T16:47:44.027Z,100437.34
2022-12-23T16:50:14.761Z,100432.66
2022-12-23T16:52:41.301Z,100426.00
2022-12-23T16:55:19.387Z,100425.72
2022-12-23T16:57:46.260Z,100426.47
2022-12-23T17:00:16.001Z,100431.16
2022-12-23T17:02:44.304Z,100429.19
2022-12-23T17:05:19.991Z,100424.50
2022-12-23T17:07:46.822Z,100432.66
2022-12-23T17:10:15.076Z,100429.19
2022-12-23T17:12:42.904Z,100428.44
2022-12-23T17:15:17.379Z,100426.19
2022-12-23T17:17:43.957Z,100424.50
2022-12-23T17:20:11.640Z,100421.03
2022-12-23T17:22:38.319Z,100420.28
2022-12-23T17:25:05.363Z,100414.84
2022-12-23T17:27:31.988Z,100419.53
2022-12-23T17:29:58.473Z,100420.28
2022-12-23T17:32:25.129Z,100416.81
2022-12-23T17:34:51.621Z,100415.59
2022-12-23T17:37:20.762Z,100407.63
2022-12-23T17:39:48.080Z,100412.59
2022-12-23T17:42:25.270Z,100405.66
2022-12-23T17:44:52.458Z,100405.19
2022-12-23T17:47:22.113Z,100409.16
2022-12-23T17:49:49.149Z,100407.16
2022-12-23T17:52:18.312Z,100403.22
2022-12-23T17:54:47.844Z,100410.16
2022-12-23T17:57:21.855Z,100413.34
2022-12-23T17:59:49.702Z,100417.56
2022-12-23T18:02:33.026Z,100417.56
2022-12-23T18:04:59.893Z,100425.72
2022-12-23T18:07:26.574Z,100423.47
2022-12-23T18:09:53.524Z,100431.16
2022-12-23T18:12:26.535Z,100423.47
2022-12-23T18:14:53.001Z,100429.47
2022-12-23T18:17:19.578Z,100426.47
2022-12-23T18:19:46.207Z,100431.16
2022-12-23T18:22:22.715Z,100440.53
2022-12-23T18:24:55.319Z,100433.13
2022-12-23T18:27:25.269Z,100434.63
2022-12-23T18:29:51.868Z,100437.63
2022-12-23T18:32:25.069Z,100440.63
2022-12-23T18:34:52.640Z,100435.94
2022-12-23T18:37:19.583Z,100429.25
2022-12-23T18:39:46.720Z,100429.75
2022-12-23T18:42:18.780Z,100428.81
2022-12-23T18:44:48.087Z,100428.53
2022-12-23T18:47:14.525Z,100425.31
2022-12-23T18:49:41.091Z,100418.13
2022-12-23T18:52:12.622Z,100422.06
2022-12-23T18:54:40.071Z,100422.81
2022-12-23T18:57:07.122Z,100414.66
2022-12-23T18:59:36.210Z,100413.91
2022-12-23T19:02:02.799Z,100412.22
2022-12-23T19:04:29.315Z,100417.66
2022-12-23T19:06:57.082Z,100418.38
2022-12-23T19:09:24.310Z,100410.97
2022-12-23T19:11:53.031Z,100416.41
2022-12-23T19:14:19.505Z,100415.66
2022-12-23T19:16:51.158Z,100418.38
2022-12-23T19:19:18.755Z,100415.66
2022-12-23T19:21:45.228Z,100416.41
2022-12-23T19:24:11.784Z,100415.66
2022-12-23T19:26:38.234Z,100419.63
2022-12-23T19:29:04.708Z,100416.41
2022-12-23T19:31:33.756Z,100412.69
2022-12-23T19:34:00.691Z,100419.34
2022-12-23T19:36:27.509Z,100420.09
2022-12-23T19:38:56.541Z,100417.38
2022-12-23T19:41:25.527Z,100424.03
2022-12-23T19:43:52.086Z,100426.00
2022-12-23T19:46:18.881Z,100429.94
2022-12-23T19:48:51.701Z,100426.19
2022-12-23T19:51:18.549Z,100417.31
2022-12-23T19:53:46.067Z,100418.03
2022-12-23T19:56:15.519Z,100424.69
2022-12-23T19:58:46.504Z,100425.16
2022-12-23T20:01:18.728Z,100425.16
2022-12-23T20:03:47.100Z,100423.19
2022-12-23T20:06:19.211Z,100422.44
2022-12-23T20:08:46.960Z,100415.50
2022-12-23T20:11:19.907Z,100425.91
2022-12-23T20:13:47.137Z,100423.66
2022-12-23T20:16:13.813Z,100423.66
2022-12-23T20:18:40.413Z,100425.63
2022-12-23T20:21:07.028Z,100426.09
2022-12-23T20:23:34.615Z,100419.47
2022-12-23T20:26:01.179Z,100421.69
2022-12-23T20:28:28.332Z,100423.66
2022-12-23T20:31:19.012Z,100420.19
2022-12-23T20:33:47.061Z,100418.97
2022-12-23T20:36:15.890Z,100427.88
2022-12-23T20:38:44.962Z,100431.06
2022-12-23T20:41:14.393Z,100424.91
2022-12-23T20:43:41.287Z,100427.63
2022-12-23T20:46:11.127Z,100425.16
2022-12-23T20:48:38.054Z,100433.78
2022-12-23T20:51:10.210Z,100437.25
2022-12-23T20:56:05.503Z,100430.34
2022-12-23T20:58:50.898Z,100437.25
2022-12-23T21:03:44.034Z,100433.78
2022-12-23T21:06:10.624Z,100434.25
2022-12-23T21:08:37.995Z,100429.09
2022-12-23T21:11:06.949Z,100428.81
2022-12-23T21:13:33.760Z,100426.09
2022-12-23T21:16:05.830Z,100425.81
2022-12-23T21:18:32.429Z,100430.50
2022-12-23T21:21:04.234Z,100425.06
2022-12-23T21:23:31.185Z,100418.16
2022-12-23T21:26:07.323Z,100428.53
2022-12-23T21:28:34.026Z,100435.47
2022-12-23T21:31:00.573Z,100433.97
2022-12-23T21:33:27.103Z,100433.22
2022-12-23T21:35:54.153Z,100440.66
2022-12-23T21:38:20.731Z,100436.69
2022-12-23T21:40:47.188Z,100431.75
2022-12-23T21:43:13.873Z,100431.75
2022-12-23T21:45:40.391Z,100434.47
2022-12-23T21:48:07.435Z,100431.00
2022-12-23T21:50:33.925Z,100423.84
2022-12-23T21:53:00.410Z,100428.53
2022-12-23T21:55:26.882Z,100432.50
2022-12-23T21:57:53.446Z,100436.22
2022-12-23T22:00:20.005Z,100434.25
2022-12-23T22:02:46.517Z,100434.72
2022-12-23T22:05:13.057Z,100444.38
2022-12-23T22:07:39.551Z,100437.94
2022-12-23T22:10:06.860Z,100434.72
2022-12-23T22:12:33.308Z,100444.84
2022-12-23T22:14:59.799Z,100444.84
2022-12-23T22:17:26.281Z,100436.22
2022-12-23T22:19:52.898Z,100441.66
2022-12-23T22:22:19.375Z,100441.38
2022-12-23T22:24:46.175Z,100448.81
2022-12-23T22:27:12.644Z,100448.50
2022-12-23T22:29:39.295Z,100452.19
2022-12-23T22:32:05.825Z,100450.41
2022-12-23T22:34:32.758Z,100447.88
2022-12-23T22:36:59.333Z,100458.94
2022-12-23T22:39:25.887Z,100451.69
2022-12-23T22:41:52.704Z,100451.13
2022-12-23T22:44:19.928Z,100450.88
2022-12-23T22:46:46.584Z,100454.50
2022-12-23T22:49:14.610Z,100446.25
2022-12-23T22:51:42.060Z,100448.41
2022-12-23T22:54:15.091Z,100448.31
2022-12-23T22:56:42.066Z,100449.97
2022-12-23T22:59:21.117Z,100456.81
2022-12-23T23:01:48.264Z,100457.75
2022-12-23T23:04:14.866Z,100456.44
2022-12-23T23:06:42.501Z,100448.91
2022-12-23T23:09:14.583Z,100458.00
2022-12-23T23:11:43.901Z,100457.13
2022-12-23T23:14:11.741Z,100460.31
2022-12-23T23:16:38.785Z,100456.25
2022-12-23T23:19:06.592Z,100461.13
2022-12-23T23:21:34.206Z,100462.06
2022-12-23T23:24:00.729Z,100473.06
2022-12-23T23:26:27.552Z,100463.88
2022-12-23T23:28:55.750Z,100462.88
2022-12-23T23:34:09.219Z,100461.03
2022-12-23T23:36:35.806Z,100464.72
2022-12-23T23:39:02.370Z,100457.03
2022-12-23T23:41:28.835Z,100460.94
2022-12-23T23:43:55.380Z,100462.16
2022-12-23T23:46:21.893Z,100463.84
2022-12-23T23:48:48.580Z,100462.78
2022-12-23T23:51:15.097Z,100464.47
2022-12-23T23:53:41.556Z,100462.69
2022-12-23T23:56:09.001Z,100462.38
2022-12-23T23:58:36.527Z,100467.53
